Time;durP1;ratioP1;P1;durP2;ratioP2;P2;SDS_P1;SDS_P2;PMS_P1;PMS_P2;Temp;Humidity;BMP_temperature;BMP_pressure;BME280_temperature;BME280_humidity;BME280_pressure;Samples;Min_cycle;Max_cycle;Signal;HPM_P1;HPM_P2
2022/07/24 00:00:34;;;;;;;17.43;12.87;;;22.40;1.00;;;;;;4930675;29;20204;-76
2022/07/24 00:03:00;;;;;;;21.00;13.50;;;22.40;1.00;;;;;;4932047;29;20526;-76
2022/07/24 00:05:25;;;;;;;16.67;13.10;;;22.30;1.00;;;;;;4931711;29;20200;-76
2022/07/24 00:07:51;;;;;;;15.70;12.50;;;22.30;1.00;;;;;;4929620;29;20191;-76
2022/07/24 00:10:16;;;;;;;15.07;12.33;;;22.20;1.00;;;;;;4929922;29;20520;-76
2022/07/24 00:12:42;;;;;;;15.70;12.73;;;22.10;1.00;;;;;;4944857;28;20181;-76
2022/07/24 00:15:08;;;;;;;17.70;12.70;;;22.10;1.00;;;;;;4930538;29;20617;-76
2022/07/24 00:17:33;;;;;;;20.30;13.73;;;22.00;1.00;;;;;;4927031;29;20972;-76
2022/07/24 00:19:59;;;;;;;17.80;12.70;;;22.00;1.00;;;;;;4930914;29;20208;-76
2022/07/24 00:22:24;;;;;;;18.73;12.70;;;22.00;1.00;;;;;;4927924;29;20578;-76
2022/07/24 00:24:50;;;;;;;19.07;12.80;;;22.00;1.00;;;;;;4931373;29;20189;-78
2022/07/24 00:27:15;;;;;;;14.07;12.17;;;22.10;1.00;;;;;;4930620;29;20187;-76
2022/07/24 00:29:41;;;;;;;15.90;13.43;;;23.00;1.00;;;;;;4930785;29;20184;-76
2022/07/24 00:32:07;;;;;;;17.63;12.53;;;22.10;1.00;;;;;;4923762;29;20180;-76
2022/07/24 00:34:32;;;;;;;14.80;12.97;;;21.90;1.00;;;;;;4931221;29;20263;-77
2022/07/24 00:36:58;;;;;;;17.73;14.03;;;21.90;1.00;;;;;;4931065;29;20317;-74
2022/07/24 00:39:23;;;;;;;17.20;12.93;;;21.70;1.00;;;;;;4931122;29;20173;-74
2022/07/24 00:41:52;;;;;;;14.20;11.87;;;21.60;1.00;;;;;;4929454;29;20307;-76
2022/07/24 00:44:17;;;;;;;14.67;12.50;;;21.60;1.00;;;;;;4917881;29;20192;-77
2022/07/24 00:46:44;;;;;;;14.80;12.87;;;21.60;1.00;;;;;;4929848;29;20433;-77
2022/07/24 00:49:13;;;;;;;16.57;13.20;;;21.50;1.00;;;;;;4929961;29;20517;-76
2022/07/24 00:51:41;;;;;;;16.70;13.40;;;21.50;1.00;;;;;;4930856;29;20436;-76
2022/07/24 00:54:08;;;;;;;19.83;14.20;;;21.40;1.00;;;;;;4945361;28;20823;-76
2022/07/24 00:56:34;;;;;;;15.50;13.73;;;21.40;1.00;;;;;;4933529;29;20421;-76
2022/07/24 00:59:00;;;;;;;16.70;13.80;;;21.40;1.00;;;;;;4934418;29;20468;-76
2022/07/24 01:01:26;;;;;;;16.30;13.10;;;21.30;1.00;;;;;;4934317;29;20464;-76
2022/07/24 01:03:52;;;;;;;15.53;13.60;;;21.30;1.00;;;;;;4932900;29;20455;-76
2022/07/24 01:06:17;;;;;;;15.77;13.23;;;21.30;1.00;;;;;;4934092;29;20181;-76
2022/07/24 01:08:43;;;;;;;18.17;13.03;;;21.30;1.00;;;;;;4930292;29;20656;-76
2022/07/24 01:11:09;;;;;;;15.37;13.53;;;21.30;1.00;;;;;;4932471;29;20580;-76
2022/07/24 01:13:35;;;;;;;16.43;12.37;;;21.30;1.00;;;;;;4933957;29;20199;-77
2022/07/24 01:16:01;;;;;;;15.97;12.80;;;21.30;1.00;;;;;;4933972;29;20468;-76
2022/07/24 01:18:27;;;;;;;17.63;13.30;;;21.30;1.00;;;;;;4935039;29;20456;-76
2022/07/24 01:20:52;;;;;;;16.17;13.50;;;21.20;1.00;;;;;;4932088;29;20564;-76
2022/07/24 01:23:18;;;;;;;16.70;13.50;;;21.20;1.00;;;;;;4934377;29;20168;-77
2022/07/24 01:25:44;;;;;;;17.40;13.53;;;21.10;1.00;;;;;;4932431;29;20248;-76
2022/07/24 01:28:09;;;;;;;17.60;13.40;;;21.00;1.00;;;;;;4933658;29;20177;-76
2022/07/24 01:30:35;;;;;;;14.70;13.00;;;21.00;1.00;;;;;;4934449;29;20198;-76
2022/07/24 01:33:01;;;;;;;16.63;13.30;;;20.90;1.00;;;;;;4932602;29;20532;-76
2022/07/24 01:35:26;;;;;;;19.03;13.63;;;20.80;1.00;;;;;;4948115;29;20208;-76
2022/07/24 01:37:53;;;;;;;16.17;13.40;;;20.80;1.00;;;;;;4933067;29;20622;-76
2022/07/24 01:40:20;;;;;;;19.40;13.10;;;20.80;1.00;;;;;;4927350;29;20208;-76
2022/07/24 01:42:45;;;;;;;15.37;13.03;;;20.80;1.00;;;;;;4930615;29;20594;-76
2022/07/24 01:45:11;;;;;;;17.40;13.70;;;20.80;1.00;;;;;;4932135;29;20965;-76
2022/07/24 01:47:37;;;;;;;19.10;13.53;;;20.80;1.00;;;;;;4925496;29;20188;-76
2022/07/24 01:50:03;;;;;;;15.77;12.93;;;20.70;1.00;;;;;;4918002;29;20616;-76
2022/07/24 01:52:28;;;;;;;16.27;13.47;;;20.60;1.00;;;;;;4933055;29;20264;-76
2022/07/24 01:54:54;;;;;;;18.10;13.80;;;20.60;1.00;;;;;;4944452;29;20552;-76
2022/07/24 01:57:19;;;;;;;20.73;13.33;;;20.60;1.00;;;;;;4947455;29;20191;-76
2022/07/24 01:59:45;;;;;;;19.77;14.97;;;20.50;1.00;;;;;;4932345;29;20261;-77
2022/07/24 02:02:11;;;;;;;18.80;14.23;;;20.50;1.00;;;;;;4933941;29;20256;-76
2022/07/24 02:04:36;;;;;;;15.63;13.03;;;20.40;1.00;;;;;;4932070;29;20200;-76
2022/07/24 02:07:02;;;;;;;17.20;13.50;;;20.30;1.00;;;;;;4933847;29;20173;-76
2022/07/24 02:09:28;;;;;;;14.73;13.10;;;20.30;1.00;;;;;;4932280;29;20680;-76
2022/07/24 02:11:53;;;;;;;23.60;13.57;;;20.40;1.00;;;;;;4943425;29;20228;-76
2022/07/24 02:14:19;;;;;;;19.60;13.50;;;20.40;1.00;;;;;;4944447;28;20252;-76
2022/07/24 02:16:45;;;;;;;15.00;12.67;;;20.30;1.00;;;;;;4932844;29;20255;-76
2022/07/24 02:19:11;;;;;;;16.53;12.50;;;20.30;1.00;;;;;;4947499;29;20165;-76
2022/07/24 02:21:36;;;;;;;16.00;12.80;;;20.20;1.00;;;;;;4923913;29;20209;-76
2022/07/24 02:24:02;;;;;;;16.80;13.07;;;20.00;1.00;;;;;;4933449;29;20176;-76
2022/07/24 02:26:27;;;;;;;16.17;13.10;;;19.90;1.00;;;;;;4931702;29;20208;-76
2022/07/24 02:28:53;;;;;;;15.87;12.77;;;19.80;1.00;;;;;;4932049;29;20280;-76
2022/07/24 02:31:18;;;;;;;16.10;12.73;;;20.00;1.00;;;;;;4931495;29;20199;-76
2022/07/24 02:33:44;;;;;;;17.93;13.33;;;19.80;1.00;;;;;;4928583;29;20264;-76
2022/07/24 02:36:10;;;;;;;16.70;13.27;;;19.70;1.00;;;;;;4921660;29;20284;-76
2022/07/24 02:38:35;;;;;;;17.30;13.40;;;19.70;1.00;;;;;;4947667;29;20660;-76
2022/07/24 02:41:01;;;;;;;18.03;12.90;;;19.80;1.00;;;;;;4931592;29;20212;-76
2022/07/24 02:43:26;;;;;;;17.20;13.33;;;19.70;1.00;;;;;;4932243;29;20199;-76
2022/07/24 02:45:52;;;;;;;16.03;12.70;;;19.70;1.00;;;;;;4946814;29;20283;-76
2022/07/24 02:48:17;;;;;;;19.90;13.40;;;19.70;1.00;;;;;;4931995;29;20177;-76
2022/07/24 02:50:43;;;;;;;16.03;13.20;;;19.70;1.00;;;;;;4947139;28;20256;-76
2022/07/24 02:53:08;;;;;;;18.40;12.53;;;19.70;1.00;;;;;;4931067;29;20192;-76
2022/07/24 02:55:34;;;;;;;18.30;13.47;;;19.70;1.00;;;;;;4932130;29;20183;-76
2022/07/24 02:57:59;;;;;;;15.47;12.47;;;19.70;1.00;;;;;;4947556;29;20199;-76
2022/07/24 03:00:25;;;;;;;14.43;12.50;;;19.80;1.00;;;;;;4931651;29;20215;-76
2022/07/24 03:02:50;;;;;;;14.57;13.00;;;19.90;1.00;;;;;;4931574;29;20176;-76
2022/07/24 03:05:16;;;;;;;17.80;12.10;;;20.00;1.00;;;;;;4930778;29;20586;-76
2022/07/24 03:07:42;;;;;;;14.97;12.63;;;20.00;1.00;;;;;;4930414;29;20543;-76
2022/07/24 03:10:10;;;;;;;18.23;13.10;;;20.00;1.00;;;;;;4931198;29;20460;-76
2022/07/24 03:12:36;;;;;;;20.40;13.17;;;20.00;1.00;;;;;;4931915;29;20173;-76
2022/07/24 03:15:02;;;;;;;17.00;13.50;;;19.90;1.00;;;;;;4946557;29;20681;-76
2022/07/24 03:17:28;;;;;;;16.40;13.27;;;19.90;1.00;;;;;;4931868;29;20618;-76
2022/07/24 03:19:53;;;;;;;15.33;12.60;;;19.90;1.00;;;;;;4930851;29;20468;-76
2022/07/24 03:22:19;;;;;;;15.87;12.90;;;19.80;1.00;;;;;;4930940;29;20169;-76
2022/07/24 03:24:44;;;;;;;16.20;13.50;;;19.80;1.00;;;;;;4930625;29;20180;-76
2022/07/24 03:27:10;;;;;;;16.53;13.00;;;19.80;1.00;;;;;;4947117;29;20169;-76
2022/07/24 03:29:36;;;;;;;16.27;12.57;;;19.70;1.00;;;;;;4931985;29;20264;-76
2022/07/24 03:32:01;;;;;;;16.20;12.00;;;19.70;1.00;;;;;;4931372;29;20271;-76
2022/07/24 03:34:27;;;;;;;17.53;12.77;;;19.70;1.00;;;;;;4930718;29;20196;-76
2022/07/24 03:36:52;;;;;;;14.20;12.33;;;19.70;1.00;;;;;;4931552;29;20600;-76
2022/07/24 03:39:18;;;;;;;17.43;12.10;;;19.70;1.00;;;;;;4931012;29;20184;-75
2022/07/24 03:41:44;;;;;;;17.50;12.57;;;19.60;1.00;;;;;;4930091;29;20205;-76
2022/07/24 03:44:09;;;;;;;17.73;12.57;;;19.60;1.00;;;;;;4932116;29;20551;-76
2022/07/24 03:46:35;;;;;;;16.33;13.17;;;19.60;1.00;;;;;;4930288;29;20209;-76
2022/07/24 03:49:00;;;;;;;17.63;14.00;;;19.60;1.00;;;;;;4932316;29;20698;-76
2022/07/24 03:51:26;;;;;;;15.27;12.27;;;19.50;1.00;;;;;;4930011;29;20323;-76
2022/07/24 03:53:52;;;;;;;17.27;12.50;;;19.50;1.00;;;;;;4931706;29;20185;-76
2022/07/24 03:56:18;;;;;;;14.80;13.13;;;19.40;1.00;;;;;;4930095;29;20188;-76
2022/07/24 03:58:43;;;;;;;16.50;12.37;;;19.50;1.00;;;;;;4932169;29;20217;-76
2022/07/24 04:01:10;;;;;;;14.30;11.53;;;19.50;1.00;;;;;;4929378;29;20304;-76
2022/07/24 04:03:36;;;;;;;16.50;12.30;;;19.50;1.00;;;;;;4931625;29;20987;-76
2022/07/24 04:06:05;;;;;;;16.57;12.03;;;19.60;1.00;;;;;;4930649;29;20527;-76
2022/07/24 04:08:33;;;;;;;16.70;11.97;;;19.70;1.00;;;;;;4931520;29;20181;-76
2022/07/24 04:10:59;;;;;;;16.10;12.33;;;19.60;1.00;;;;;;4928709;29;20564;-76
2022/07/24 04:13:26;;;;;;;17.13;12.50;;;19.70;1.00;;;;;;4946529;29;20894;-76
2022/07/24 04:15:53;;;;;;;15.53;12.10;;;19.60;1.00;;;;;;4930948;29;20211;-76
2022/07/24 04:18:18;;;;;;;13.70;12.13;;;19.60;1.00;;;;;;4929903;29;20436;-76
2022/07/24 04:20:44;;;;;;;15.00;11.37;;;19.60;1.00;;;;;;4930116;29;20531;-76
2022/07/24 04:23:09;;;;;;;15.07;12.00;;;19.60;1.00;;;;;;4926368;29;20184;-76
2022/07/24 04:25:35;;;;;;;15.50;12.70;;;19.60;1.00;;;;;;4923201;29;20177;-76
2022/07/24 04:28:01;;;;;;;16.57;12.33;;;19.50;1.00;;;;;;4946383;29;20645;-76
2022/07/24 04:30:27;;;;;;;14.30;12.40;;;19.50;1.00;;;;;;4934321;29;20196;-76
2022/07/24 04:32:52;;;;;;;14.90;12.20;;;19.50;1.00;;;;;;4933233;29;20503;-76
2022/07/24 04:35:18;;;;;;;14.37;12.27;;;19.50;1.00;;;;;;4935130;29;20177;-76
2022/07/24 04:37:45;;;;;;;16.33;12.33;;;19.50;1.00;;;;;;4933959;29;20184;-76
2022/07/24 04:40:11;;;;;;;14.97;11.90;;;19.60;1.00;;;;;;4934932;29;20264;-76
2022/07/24 04:42:37;;;;;;;15.73;12.80;;;19.60;1.00;;;;;;4944820;29;20428;-73
2022/07/24 04:45:03;;;;;;;15.83;12.10;;;19.60;1.00;;;;;;4934127;29;20445;-73
2022/07/24 04:47:29;;;;;;;14.30;12.23;;;19.50;1.00;;;;;;4948933;29;20260;-76
2022/07/24 04:49:54;;;;;;;17.93;13.03;;;19.60;1.00;;;;;;4933654;29;21003;-76
2022/07/24 04:52:20;;;;;;;17.20;13.30;;;19.60;1.00;;;;;;4932955;29;20181;-76
2022/07/24 04:54:45;;;;;;;13.87;12.37;;;19.70;1.00;;;;;;4933883;29;20487;-75
2022/07/24 04:57:11;;;;;;;16.80;12.50;;;19.80;1.00;;;;;;4935053;29;20173;-76
2022/07/24 04:59:36;;;;;;;16.47;13.30;;;19.90;1.00;;;;;;4934539;29;20260;-76
2022/07/24 05:02:02;;;;;;;21.93;13.00;;;20.00;1.00;;;;;;4930526;29;20296;-76
2022/07/24 05:04:28;;;;;;;15.20;12.53;;;20.00;1.00;;;;;;4933935;29;20196;-77
2022/07/24 05:06:53;;;;;;;14.50;12.17;;;20.10;1.00;;;;;;4933999;29;20471;-76
2022/07/24 05:09:19;;;;;;;15.70;12.40;;;20.20;1.00;;;;;;4933480;29;20177;-76
2022/07/24 05:11:45;;;;;;;16.07;13.57;;;20.20;1.00;;;;;;4930828;29;20204;-76
2022/07/24 05:14:10;;;;;;;15.67;12.27;;;20.30;1.00;;;;;;4934150;29;20184;-76
2022/07/24 05:16:36;;;;;;;16.07;13.00;;;20.40;1.00;;;;;;4929452;29;20189;-76
2022/07/24 05:19:02;;;;;;;14.43;12.30;;;20.50;1.00;;;;;;4931320;29;20185;-76
2022/07/24 05:21:27;;;;;;;15.27;12.60;;;20.60;1.00;;;;;;4947030;29;20242;-76
2022/07/24 05:23:53;;;;;;;14.80;12.67;;;20.70;1.00;;;;;;4933055;29;20196;-76
2022/07/24 05:26:18;;;;;;;15.70;12.20;;;20.80;1.00;;;;;;4933333;29;20185;-76
2022/07/24 05:28:44;;;;;;;15.17;13.13;;;20.90;1.00;;;;;;4933512;29;20727;-76
2022/07/24 05:31:09;;;;;;;19.50;13.00;;;21.00;1.00;;;;;;4933677;29;20239;-76
2022/07/24 05:33:35;;;;;;;15.07;13.43;;;21.00;1.00;;;;;;4931831;29;20682;-76
2022/07/24 05:36:01;;;;;;;14.13;11.97;;;21.20;1.00;;;;;;4915035;29;20601;-76
2022/07/24 05:38:26;;;;;;;15.93;13.07;;;21.20;1.00;;;;;;4927723;29;20699;-76
2022/07/24 05:40:52;;;;;;;16.43;11.50;;;21.30;1.00;;;;;;4932172;29;20602;-76
2022/07/24 05:43:17;;;;;;;17.80;12.57;;;21.30;1.00;;;;;;4932856;29;20555;-76
2022/07/24 05:45:43;;;;;;;14.00;11.33;;;21.30;1.00;;;;;;4929094;29;20636;-76
2022/07/24 05:48:09;;;;;;;18.43;11.50;;;21.40;1.00;;;;;;4945303;29;20504;-76
2022/07/24 05:50:34;;;;;;;21.17;11.67;;;21.40;1.00;;;;;;4933645;29;20428;-76
2022/07/24 05:53:00;;;;;;;21.70;11.60;;;21.50;1.00;;;;;;4932566;29;20284;-76
2022/07/24 05:55:25;;;;;;;17.43;10.87;;;21.60;1.00;;;;;;4931521;29;20217;-76
2022/07/24 05:57:51;;;;;;;15.63;11.77;;;21.70;1.00;;;;;;4933175;29;20192;-74
2022/07/24 06:00:20;;;;;;;13.30;10.70;;;21.70;1.00;;;;;;4933044;29;20303;-77
2022/07/24 06:02:46;;;;;;;12.73;9.90;;;21.80;1.00;;;;;;4921799;29;20181;-75
2022/07/24 06:05:13;;;;;;;12.53;10.33;;;21.90;1.00;;;;;;4927669;29;20582;-75
2022/07/24 06:07:38;;;;;;;12.40;10.50;;;21.90;1.00;;;;;;4932514;29;20975;-76
2022/07/24 06:10:04;;;;;;;13.57;10.57;;;22.10;1.00;;;;;;4929968;29;20453;-76
2022/07/24 06:12:30;;;;;;;11.30;9.35;;;22.20;1.00;;;;;;4932051;29;20789;-75
2022/07/24 06:14:55;;;;;;;11.10;9.90;;;22.40;1.00;;;;;;4931866;29;20185;-75
2022/07/24 06:17:21;;;;;;;13.27;9.93;;;22.60;1.00;;;;;;4948010;29;20169;-75
2022/07/24 06:19:46;;;;;;;11.20;10.00;;;22.70;1.00;;;;;;4932226;29;20207;-75
2022/07/24 06:22:12;;;;;;;12.30;9.97;;;22.80;1.00;;;;;;4933201;28;20177;-75
2022/07/24 06:24:37;;;;;;;10.50;9.40;;;23.00;1.00;;;;;;4931715;29;20172;-74
2022/07/24 06:27:04;;;;;;;11.77;9.20;;;23.10;1.00;;;;;;4932558;29;20188;-75
2022/07/24 06:29:30;;;;;;;11.57;9.50;;;23.20;1.00;;;;;;4932396;29;20365;-75
2022/07/24 06:31:56;;;;;;;12.70;10.10;;;23.40;1.00;;;;;;4932912;29;20436;-75
2022/07/24 06:34:23;;;;;;;12.50;9.87;;;23.50;1.00;;;;;;4931718;29;20447;-76
2022/07/24 06:36:50;;;;;;;13.67;9.60;;;23.60;1.00;;;;;;4934027;29;20531;-76
2022/07/24 06:39:16;;;;;;;11.50;8.43;;;23.60;1.00;;;;;;4927980;29;20432;-76
2022/07/24 06:41:41;;;;;;;11.23;9.00;;;23.70;1.00;;;;;;4923919;29;20483;-75
2022/07/24 06:44:07;;;;;;;10.00;9.00;;;23.70;1.00;;;;;;4947361;29;20263;-76
2022/07/24 06:46:33;;;;;;;12.13;8.97;;;23.90;1.00;;;;;;4932288;29;20169;-76
2022/07/24 06:48:58;;;;;;;12.20;9.10;;;24.00;1.00;;;;;;4931459;29;20185;-75
2022/07/24 06:51:24;;;;;;;11.40;9.07;;;24.10;1.00;;;;;;4931783;29;20444;-76
2022/07/24 06:53:50;;;;;;;10.93;7.93;;;24.40;1.00;;;;;;4932484;29;20486;-76
2022/07/24 06:56:15;;;;;;;9.53;8.40;;;24.40;1.00;;;;;;4930996;29;20288;-76
2022/07/24 06:58:41;;;;;;;9.53;8.43;;;24.50;1.00;;;;;;4916341;29;20579;-75
2022/07/24 07:01:06;;;;;;;12.67;8.90;;;24.70;1.00;;;;;;4912876;29;20221;-75
2022/07/24 07:03:32;;;;;;;10.70;8.70;;;24.90;1.00;;;;;;4930108;29;20615;-76
2022/07/24 07:05:57;;;;;;;13.00;9.20;;;25.00;1.00;;;;;;4931970;29;20189;-75
2022/07/24 07:08:23;;;;;;;13.30;8.17;;;25.20;1.00;;;;;;4932150;29;20187;-76
2022/07/24 07:10:48;;;;;;;10.90;8.80;;;25.40;1.00;;;;;;4931634;29;20200;-76
2022/07/24 07:13:14;;;;;;;11.83;8.73;;;25.50;1.00;;;;;;4931763;29;20181;-76
2022/07/24 07:15:39;;;;;;;10.00;8.50;;;25.60;1.00;;;;;;4931707;29;20588;-75
2022/07/24 07:18:05;;;;;;;10.20;8.20;;;25.70;1.00;;;;;;4947253;29;20184;-76
2022/07/24 07:20:31;;;;;;;12.40;8.40;;;25.90;1.00;;;;;;4930762;29;20219;-76
2022/07/24 07:22:56;;;;;;;10.47;8.53;;;26.00;1.00;;;;;;4945746;29;20482;-76
2022/07/24 07:25:22;;;;;;;11.00;8.77;;;26.10;1.00;;;;;;4931934;29;20177;-76
2022/07/24 07:27:47;;;;;;;13.93;9.07;;;26.10;1.00;;;;;;4932099;29;20327;-76
2022/07/24 07:30:13;;;;;;;11.43;9.47;;;25.90;1.00;;;;;;4931815;29;20365;-76
2022/07/24 07:32:39;;;;;;;11.50;9.20;;;25.90;1.00;;;;;;4931601;29;20682;-76
2022/07/24 07:35:05;;;;;;;12.53;9.33;;;26.10;1.00;;;;;;4946678;29;20185;-76
2022/07/24 07:37:31;;;;;;;12.60;8.67;;;26.40;1.00;;;;;;4946853;29;20465;-76
2022/07/24 07:39:58;;;;;;;13.67;8.70;;;27.00;1.00;;;;;;4931432;29;21080;-76
2022/07/24 07:42:23;;;;;;;10.67;9.57;;;27.00;1.00;;;;;;4945732;29;20643;-76
2022/07/24 07:44:49;;;;;;;9.70;8.70;;;26.90;1.00;;;;;;4932226;29;20413;-76
2022/07/24 07:47:14;;;;;;;9.47;8.47;;;27.10;1.00;;;;;;4932343;29;20203;-76
2022/07/24 07:49:40;;;;;;;10.50;9.17;;;27.30;1.00;;;;;;4931854;29;20173;-76
2022/07/24 07:52:05;;;;;;;10.30;8.87;;;27.50;1.00;;;;;;4931639;29;20181;-76
2022/07/24 07:54:31;;;;;;;9.47;8.23;;;27.80;1.00;;;;;;4931790;29;20226;-76
2022/07/24 07:56:56;;;;;;;10.90;8.73;;;27.90;1.00;;;;;;4928451;29;20173;-76
2022/07/24 07:59:22;;;;;;;10.70;9.60;;;28.20;1.00;;;;;;4922485;29;20567;-76
2022/07/24 08:01:48;;;;;;;10.53;8.70;;;28.50;1.00;;;;;;4925975;29;20215;-76
2022/07/24 08:04:13;;;;;;;10.10;8.90;;;28.70;1.00;;;;;;4933150;29;20173;-76
2022/07/24 08:06:39;;;;;;;11.83;9.47;;;28.90;1.00;;;;;;4937254;29;20188;-76
2022/07/24 08:09:04;;;;;;;11.10;9.70;;;28.90;1.00;;;;;;4938027;29;20182;-75
2022/07/24 08:11:30;;;;;;;12.53;10.30;;;28.90;1.00;;;;;;4935968;29;20753;-76
2022/07/24 08:13:55;;;;;;;12.70;10.10;;;28.90;1.00;;;;;;4952189;28;20176;-76
2022/07/24 08:16:21;;;;;;;12.43;9.77;;;28.90;1.00;;;;;;4935609;29;20682;-76
2022/07/24 08:18:47;;;;;;;10.70;9.60;;;29.10;1.00;;;;;;4937974;29;20168;-76
2022/07/24 08:21:15;;;;;;;11.13;10.03;;;29.40;1.00;;;;;;4936444;29;20243;-76
2022/07/24 08:23:40;;;;;;;14.20;10.10;;;29.50;1.00;;;;;;4951714;29;20176;-76
2022/07/24 08:26:06;;;;;;;11.57;9.43;;;29.70;1.00;;;;;;4951403;29;20562;-76
2022/07/24 08:28:32;;;;;;;11.00;9.23;;;30.00;1.00;;;;;;4935932;29;20553;-76
2022/07/24 08:30:57;;;;;;;10.37;9.37;;;30.30;1.00;;;;;;4937235;29;20204;-76
2022/07/24 08:33:23;;;;;;;13.23;9.97;;;30.30;1.00;;;;;;4952101;29;20541;-75
2022/07/24 08:35:48;;;;;;;13.20;10.23;;;30.40;1.00;;;;;;4937182;29;20612;-76
2022/07/24 08:38:14;;;;;;;11.48;10.25;;;30.40;1.00;;;;;;4937833;29;20183;-76
2022/07/24 08:40:39;;;;;;;11.60;10.40;;;30.30;1.00;;;;;;4950076;28;20612;-76
2022/07/24 08:43:07;;;;;;;15.85;10.82;;;30.40;1.00;;;;;;4950945;28;20178;-76
2022/07/24 08:45:39;;;;;;;11.07;9.95;;;30.20;1.00;;;;;;4936829;29;20188;-76
2022/07/24 08:48:07;;;;;;;11.60;10.40;;;30.20;1.00;;;;;;4930970;29;20516;-76
2022/07/24 08:50:33;;;;;;;12.30;10.83;;;30.30;1.00;;;;;;4935043;29;20628;-76
2022/07/24 08:53:02;;;;;;;11.63;9.82;;;30.50;1.00;;;;;;4933756;29;20311;-76
2022/07/24 08:55:28;;;;;;;11.82;10.02;;;31.00;1.00;;;;;;4925960;29;20525;-76
2022/07/24 08:57:59;;;;;;;15.20;10.05;;;31.70;1.00;;;;;;4937755;29;20552;-76
2022/07/24 09:00:27;;;;;;;11.40;9.45;;;32.70;1.00;;;;;;4935368;29;20209;-76
2022/07/24 09:02:52;;;;;;;11.18;9.95;;;33.90;1.00;;;;;;4937204;29;20195;-77
2022/07/24 09:05:18;;;;;;;10.73;9.73;;;35.00;1.00;;;;;;4936589;29;20620;-77
2022/07/24 09:07:44;;;;;;;11.10;9.27;;;36.00;1.00;;;;;;4931155;29;20181;-77
2022/07/24 09:10:12;;;;;;;10.52;9.50;;;37.00;1.00;;;;;;4941989;29;20208;-78
2022/07/24 09:12:46;;;;;;;10.82;9.70;;;37.60;1.00;;;;;;4944199;29;20180;-77
2022/07/24 09:15:20;;;;;;;10.45;9.35;;;38.20;1.00;;;;;;4941048;29;20552;-77
2022/07/24 09:17:51;;;;;;;10.52;8.82;;;38.30;1.00;;;;;;4934076;29;20211;-77
2022/07/24 09:20:17;;;;;;;11.32;8.55;;;38.80;1.00;;;;;;4933231;29;20282;-78
2022/07/24 09:22:43;;;;;;;10.43;8.77;;;39.10;1.00;;;;;;4933024;29;20727;-78
2022/07/24 09:25:13;;;;;;;9.10;8.27;;;39.60;1.00;;;;;;4935540;29;20180;-77
2022/07/24 09:27:53;;;;;;;8.52;7.72;;;39.90;1.00;;;;;;4936456;29;20176;-77
2022/07/24 09:30:31;;;;;;;12.85;8.30;;;40.20;1.00;;;;;;4930185;29;20203;-77
2022/07/24 09:33:04;;;;;;;11.30;8.30;;;40.80;1.00;;;;;;4951346;29;20176;-78
2022/07/24 09:35:38;;;;;;;9.05;8.15;;;41.10;1.00;;;;;;4938538;29;20176;-78
2022/07/24 09:38:06;;;;;;;14.32;8.77;;;41.40;1.00;;;;;;4954542;29;20640;-78
2022/07/24 09:40:34;;;;;;;8.85;7.95;;;41.20;1.00;;;;;;4938986;29;20228;-78
2022/07/24 09:43:15;;;;;;;8.45;7.65;;;41.40;1.00;;;;;;4953697;29;20172;-78
2022/07/24 09:45:54;;;;;;;8.73;7.93;;;41.70;1.00;;;;;;4939290;29;20682;-78
2022/07/24 09:48:22;;;;;;;8.93;8.02;;;42.20;1.00;;;;;;4940239;29;20256;-78
2022/07/24 09:50:50;;;;;;;8.65;7.75;;;42.30;1.00;;;;;;4938026;29;20208;-78
2022/07/24 09:53:19;;;;;;;8.40;7.60;;;42.40;1.00;;;;;;4953216;29;20181;-78
2022/07/24 09:55:44;;;;;;;8.93;8.07;;;42.30;1.00;;;;;;4937201;29;20195;-78
2022/07/24 09:58:19;;;;;;;8.80;7.90;;;42.30;1.00;;;;;;4938763;29;20169;-78
2022/07/24 10:00:46;;;;;;;8.57;7.65;;;41.80;1.00;;;;;;4939070;29;20216;-78
2022/07/24 10:03:15;;;;;;;10.10;7.97;;;41.30;1.00;;;;;;4937408;29;20176;-78
2022/07/24 10:05:45;;;;;;;14.52;8.40;;;41.50;1.00;;;;;;4937406;29;20176;-78
2022/07/24 10:08:13;;;;;;;8.75;7.85;;;42.10;1.00;;;;;;4939236;29;20196;-78
2022/07/24 10:10:41;;;;;;;9.98;8.98;;;42.70;1.00;;;;;;4937633;29;20539;-78
2022/07/24 10:13:08;;;;;;;11.77;8.50;;;42.60;1.00;;;;;;4949633;29;20196;-77
2022/07/24 10:15:37;;;;;;;9.45;8.40;;;43.20;1.00;;;;;;4930395;29;20267;-77
2022/07/24 10:18:16;;;;;;;12.98;8.57;;;43.70;1.00;;;;;;4926777;29;20654;-77
2022/07/24 10:20:44;;;;;;;8.85;8.05;;;43.80;1.00;;;;;;4931491;29;20338;-77
2022/07/24 10:23:20;;;;;;;8.65;7.75;;;44.30;1.00;;;;;;4933759;29;20169;-77
2022/07/24 10:26:03;;;;;;;9.02;7.53;;;44.50;1.00;;;;;;4932606;29;20258;-77
2022/07/24 10:28:41;;;;;;;9.32;7.82;;;45.00;1.00;;;;;;4931820;29;20184;-78
2022/07/24 10:31:09;;;;;;;9.27;7.75;;;45.00;1.00;;;;;;4923409;29;20251;-77
2022/07/24 10:33:37;;;;;;;8.73;7.82;;;43.20;1.00;;;;;;4933225;29;20177;-77
2022/07/24 10:36:26;;;;;;;10.63;8.25;;;41.10;1.00;;;;;;4930476;29;20185;-77
2022/07/24 10:39:00;;;;;;;10.13;8.93;;;40.20;1.00;;;;;;4932934;29;20329;-78
2022/07/24 10:41:26;;;;;;;10.00;8.38;;;41.40;1.00;;;;;;4928642;29;20208;-78
2022/07/24 10:44:10;;;;;;;8.55;7.78;;;42.00;1.00;;;;;;4932288;29;20188;-78
2022/07/24 10:46:57;;;;;;;9.05;8.00;;;40.80;1.00;;;;;;4931653;29;20181;-77
2022/07/24 10:49:43;;;;;;;9.60;8.70;;;39.50;1.00;;;;;;4926477;29;20177;-77
2022/07/24 10:52:27;;;;;;;10.25;8.93;;;38.20;1.00;;;;;;4939276;29;20263;-77
2022/07/24 10:55:22;;;;;;;9.95;8.85;;;36.80;1.00;;;;;;4931837;29;20176;-78
2022/07/24 10:58:03;;;;;;;10.40;9.32;;;36.60;1.00;;;;;;4931013;29;20368;-77
2022/07/24 11:00:37;;;;;;;9.45;8.55;;;38.30;1.00;;;;;;4931929;29;20587;-77
2022/07/24 11:03:17;;;;;;;10.43;9.43;;;38.50;1.00;;;;;;4923507;29;20280;-78
2022/07/24 11:05:43;;;;;;;10.38;9.38;;;37.90;1.00;;;;;;4932098;29;20392;-78
2022/07/24 11:08:18;;;;;;;10.05;9.05;;;37.90;1.00;;;;;;4946612;29;20172;-77
2022/07/24 11:10:54;;;;;;;10.13;9.13;;;37.70;1.00;;;;;;4931370;29;20190;-77
2022/07/24 11:13:32;;;;;;;11.77;9.38;;;39.00;1.00;;;;;;4931605;29;20193;-78
2022/07/24 11:16:09;;;;;;;10.40;9.02;;;40.50;1.00;;;;;;4931240;29;20340;-77
2022/07/24 11:18:38;;;;;;;10.68;8.68;;;41.00;1.00;;;;;;4931617;29;20192;-77
2022/07/24 11:21:04;;;;;;;10.10;8.52;;;41.60;1.00;;;;;;4931047;29;20212;-77
2022/07/24 11:23:30;;;;;;;9.00;8.10;;;41.90;1.00;;;;;;4931387;29;20719;-77
2022/07/24 11:26:32;;;;;;;9.15;8.15;;;42.70;1.00;;;;;;4931271;29;20773;-78
2022/07/24 11:29:13;;;;;;;10.82;7.30;;;43.80;1.00;;;;;;4932192;29;20501;-76
2022/07/24 11:31:38;;;;;;;13.60;8.13;;;45.00;1.00;;;;;;4931622;29;20206;-78
2022/07/24 11:34:04;;;;;;;9.68;8.20;;;45.90;1.00;;;;;;4931451;28;20552;-77
2022/07/24 11:36:31;;;;;;;9.30;7.38;;;46.20;1.00;;;;;;4932440;29;20272;-78
2022/07/24 11:38:56;;;;;;;8.15;7.40;;;46.40;1.00;;;;;;4931048;29;20184;-78
2022/07/24 11:41:22;;;;;;;7.43;6.72;;;46.10;1.00;;;;;;4930868;29;20307;-77
2022/07/24 11:43:51;;;;;;;7.95;7.15;;;45.40;1.00;;;;;;4932061;29;20211;-77
2022/07/24 11:46:36;;;;;;;8.65;7.75;;;45.70;1.00;;;;;;4932040;29;20524;-77
2022/07/24 11:49:06;;;;;;;8.05;7.25;;;45.40;1.00;;;;;;4924387;29;20172;-77
2022/07/24 11:51:40;;;;;;;7.72;6.95;;;45.20;1.00;;;;;;4930306;29;20635;-78
2022/07/24 11:54:05;;;;;;;7.90;7.13;;;45.70;1.00;;;;;;4931919;29;20533;-78
2022/07/24 11:56:31;;;;;;;9.02;7.38;;;46.70;1.00;;;;;;4930400;29;20247;-77
2022/07/24 11:58:57;;;;;;;7.95;7.10;;;47.40;1.00;;;;;;4931588;29;20668;-78
2022/07/24 12:01:23;;;;;;;8.00;7.00;;;46.70;1.00;;;;;;4930259;29;20291;-77
2022/07/24 12:03:53;;;;;;;8.48;7.35;;;46.20;1.00;;;;;;4945343;29;20204;-78
2022/07/24 12:06:19;;;;;;;8.57;7.25;;;45.50;1.00;;;;;;4931211;29;20552;-78
2022/07/24 12:08:45;;;;;;;8.90;7.32;;;46.20;1.00;;;;;;4929594;29;20608;-78
2022/07/24 12:11:11;;;;;;;8.65;7.20;;;46.00;1.00;;;;;;4944783;28;20291;-78
2022/07/24 12:13:41;;;;;;;9.88;7.75;;;45.50;1.00;;;;;;4931702;29;20212;-78
2022/07/24 12:16:07;;;;;;;7.70;7.00;;;45.60;1.00;;;;;;4924137;29;20184;-77
2022/07/24 12:18:33;;;;;;;11.23;6.57;;;46.50;1.00;;;;;;4931948;29;20932;-77
2022/07/24 12:21:01;;;;;;;7.70;6.90;;;47.30;1.00;;;;;;4930631;29;20224;-77
2022/07/24 12:23:29;;;;;;;7.70;6.90;;;47.40;1.00;;;;;;4931636;29;20165;-78
2022/07/24 12:25:55;;;;;;;8.40;6.80;;;46.80;1.00;;;;;;4930136;29;20888;-78
2022/07/24 12:28:20;;;;;;;7.63;6.82;;;46.70;1.00;;;;;;4930515;29;20192;-78
2022/07/24 12:30:50;;;;;;;9.45;6.88;;;46.40;1.00;;;;;;4930074;29;20544;-78
2022/07/24 12:33:15;;;;;;;7.47;5.70;;;46.80;1.00;;;;;;4930122;29;20177;-77
2022/07/24 12:35:56;;;;;;;5.40;4.90;;;47.00;1.00;;;;;;4930157;29;20191;-78
2022/07/24 12:38:36;;;;;;;6.80;6.10;;;47.70;1.00;;;;;;4927745;29;20184;-77
2022/07/24 12:41:17;;;;;;;6.10;5.50;;;48.50;1.00;;;;;;4921335;29;20303;-77
2022/07/24 12:43:50;;;;;;;6.20;4.43;;;48.60;1.00;;;;;;4929977;29;20244;-77